Google Maps JavaScript API Example
Pilot Flight Report # 95014 Submitted by : AST195 on 2021-04-10
Date: 2021-04-10Aircraft: Airbus A320-200
Flight No.: AST0822Distance (Nm): 101.07
Departure: KBMI - Central Ill ReglDestination: KORD - Chicago-O'Hare International
 TimeFuelWeightSpeeds  
Out (Taxi)1645 Flight RulesIFR
Off (Takeoff)1645 Flight Level
On (Landing)1741 VSTD
In (Ramp)1741 ZFW
Flight0.93  -  0:568900  Pax0
Block0.93  -  0:568900  Cargo0
Departure WeatherKBMI 102219Z 21020G24KT 10SM FEW024 SCT030 BKN050 15/09 A2934 RMK AO2
Destination WeatherKORD 102151Z 03013KT 4SM -RA BR OVC004 11/09 A2938 RMK AO2 SLP950 P0001 T01060089
Flight CommentsN/A